Time;durP1;ratioP1;P1;durP2;ratioP2;P2;SDS_P1;SDS_P2;PMS_P1;PMS_P2;Temp;Humidity;BMP_temperature;BMP_pressure;BME280_temperature;BME280_humidity;BME280_pressure;Samples;Min_cycle;Max_cycle;Signal;HPM_P1;HPM_P2
2022/04/18 00:02:21;;;;;;;0.38;0.38;;;;;;;2.62;71.12;96016.81;4994283;28;20109;-64
2022/04/18 00:04:47;;;;;;;0.40;0.40;;;;;;;2.62;71.37;96006.47;4994176;28;20105;-62
2022/04/18 00:07:13;;;;;;;0.40;0.40;;;;;;;2.72;71.26;96001.19;4994184;28;20027;-62
2022/04/18 00:09:38;;;;;;;0.60;0.60;;;;;;;2.73;70.79;96008.91;4994101;28;20102;-62
2022/04/18 00:12:04;;;;;;;0.47;0.47;;;;;;;2.77;72.36;96007.97;4993969;28;20113;-63
2022/04/18 00:14:30;;;;;;;0.35;0.35;;;;;;;2.86;71.72;95988.88;4993936;28;20022;-64
2022/04/18 00:16:57;;;;;;;0.40;0.40;;;;;;;2.89;72.31;95993.19;4993933;28;20080;-63
2022/04/18 00:19:23;;;;;;;0.50;0.50;;;;;;;2.97;73.17;95987.84;4994003;28;20481;-63
2022/04/18 00:21:49;;;;;;;0.60;0.60;;;;;;;3.03;72.38;95985.19;4994070;28;20503;-63
2022/04/18 00:24:17;;;;;;;0.50;0.50;;;;;;;3.08;69.90;95992.84;4993929;28;20050;-64
2022/04/18 00:26:43;;;;;;;0.40;0.40;;;;;;;2.98;69.77;95990.41;4993886;28;20022;-64
2022/04/18 00:29:09;;;;;;;0.38;0.38;;;;;;;2.99;70.69;95981.81;4993837;28;20388;-64
2022/04/18 00:31:35;;;;;;;0.50;0.50;;;;;;;2.98;69.20;95992.16;4993822;28;20026;-63
2022/04/18 00:34:01;;;;;;;1.00;0.50;;;;;;;2.96;69.83;95971.53;4993719;28;20018;-64
2022/04/18 00:36:27;;;;;;;0.50;0.50;;;;;;;2.99;70.28;95983.53;4993790;28;20030;-63
2022/04/18 00:38:52;;;;;;;2.50;0.52;;;;;;;2.99;68.54;95974.06;4993843;28;20026;-63
2022/04/18 00:41:18;;;;;;;0.45;0.45;;;;;;;2.96;70.20;95979.28;4993625;28;20396;-63
2022/04/18 00:43:46;;;;;;;0.73;0.73;;;;;;;2.99;68.44;95973.19;4993394;28;20033;-64
2022/04/18 00:46:13;;;;;;;0.77;0.77;;;;;;;3.01;69.26;95974.03;4993694;28;20436;-64
2022/04/18 00:48:40;;;;;;;2.17;1.00;;;;;;;3.00;68.31;95974.88;4993600;28;20046;-64
2022/04/18 00:51:08;;;;;;;0.70;0.70;;;;;;;3.07;68.27;95967.91;4993648;28;20022;-63
2022/04/18 00:53:35;;;;;;;0.90;0.90;;;;;;;2.99;68.36;95962.84;4993553;28;20061;-64
2022/04/18 00:56:01;;;;;;;0.60;0.60;;;;;;;3.00;69.92;95956.81;4993613;28;20377;-63
2022/04/18 00:58:28;;;;;;;0.70;0.70;;;;;;;3.06;69.04;95972.19;4993667;28;20085;-63
2022/04/18 01:00:53;;;;;;;0.95;0.90;;;;;;;3.10;69.67;95973.84;4993464;28;20045;-64
2022/04/18 01:03:20;;;;;;;0.88;0.88;;;;;;;3.07;69.25;95967.91;4993425;28;20487;-62
2022/04/18 01:05:49;;;;;;;0.57;0.57;;;;;;;3.04;70.01;95958.44;4993489;28;20053;-64
2022/04/18 01:08:15;;;;;;;8.65;7.10;;;;;;;2.96;70.40;95958.59;4993426;28;20022;-64
2022/04/18 01:10:42;;;;;;;2.15;1.95;;;;;;;3.00;70.73;95961.97;4993577;28;20037;-63
2022/04/18 01:13:08;;;;;;;0.70;0.70;;;;;;;3.03;69.76;95960.19;4997277;28;20088;-65
2022/04/18 01:15:33;;;;;;;1.20;1.10;;;;;;;3.04;71.22;95963.63;4997298;28;20026;-64
2022/04/18 01:17:59;;;;;;;0.90;0.90;;;;;;;2.98;71.00;95963.75;4997283;28;20431;-63
2022/04/18 01:20:35;;;;;;;0.95;0.95;;;;;;;2.97;71.56;95956.84;4997233;28;20023;-64
2022/04/18 01:23:02;;;;;;;0.70;0.70;;;;;;;2.83;70.98;95960.50;4997188;28;20034;-63
2022/04/18 01:30:57;;;;;;;0.82;0.82;;;;;;;2.82;70.62;95937.28;4997140;28;20050;-63
2022/04/18 01:33:23;;;;;;;1.08;1.00;;;;;;;2.85;71.15;95937.25;4996825;28;20480;-63
2022/04/18 01:35:48;;;;;;;0.93;0.93;;;;;;;2.90;71.40;95944.06;4996942;28;20018;-64
2022/04/18 01:38:14;;;;;;;1.13;1.00;;;;;;;2.87;71.36;95932.91;4996778;28;20092;-64
2022/04/18 01:40:40;;;;;;;0.88;0.85;;;;;;;2.83;71.09;95939.03;4996605;28;20042;-63
2022/04/18 01:43:06;;;;;;;0.90;0.90;;;;;;;2.84;72.08;95945.88;4996932;28;20021;-63
2022/04/18 01:45:32;;;;;;;1.33;1.17;;;;;;;2.83;72.40;95929.50;4996991;28;20033;-63
2022/04/18 01:47:58;;;;;;;1.30;1.00;;;;;;;2.89;71.28;95924.25;4996662;28;20392;-63
2022/04/18 01:50:24;;;;;;;1.48;1.38;;;;;;;2.80;70.91;95923.56;4996620;28;20033;-64
2022/04/18 01:52:49;;;;;;;1.50;1.10;;;;;;;2.77;72.46;95911.56;4996474;28;20429;-64
2022/04/18 01:55:15;;;;;;;1.90;0.98;;;;;;;2.73;72.31;95921.09;4996627;28;20085;-63
2022/04/18 01:57:40;;;;;;;1.10;1.10;;;;;;;2.79;72.32;95899.44;4996517;28;20026;-63
2022/04/18 02:00:07;;;;;;;1.23;1.13;;;;;;;2.76;71.44;95915.88;4996495;28;20034;-62
2022/04/18 02:02:32;;;;;;;1.90;1.52;;;;;;;2.72;71.66;95909.06;4996489;28;20022;-63
2022/04/18 02:05:00;;;;;;;1.08;1.00;;;;;;;2.76;71.09;95910.69;4996386;28;20026;-64
2022/04/18 02:07:25;;;;;;;1.15;1.05;;;;;;;2.76;71.58;95909.84;4996435;28;20085;-64
2022/04/18 02:09:51;;;;;;;0.85;0.85;;;;;;;2.83;72.31;95911.44;4996327;28;20030;-64
2022/04/18 02:12:16;;;;;;;2.72;1.08;;;;;;;2.85;71.80;95916.56;4996085;28;20476;-64
2022/04/18 02:14:42;;;;;;;1.23;1.13;;;;;;;2.87;71.06;95904.50;4996271;28;20022;-63
2022/04/18 02:17:07;;;;;;;1.23;1.13;;;;;;;2.85;72.12;95908.81;4996275;28;20057;-63
2022/04/18 02:19:33;;;;;;;1.00;0.90;;;;;;;2.81;72.37;95909.75;4996178;28;20484;-63
2022/04/18 02:21:59;;;;;;;1.13;1.10;;;;;;;2.82;72.29;95906.28;4996035;28;20026;-63
2022/04/18 02:24:24;;;;;;;1.80;0.90;;;;;;;2.87;72.37;95910.53;4995285;28;20026;-62
2022/04/18 02:26:50;;;;;;;1.70;0.85;;;;;;;2.92;72.29;95912.16;4995930;28;20030;-62
2022/04/18 02:29:15;;;;;;;0.80;0.80;;;;;;;2.93;72.09;95922.47;4996001;28;20027;-63
2022/04/18 02:34:25;;;;;;;1.17;0.90;;;;;;;2.90;72.62;95910.47;4996156;28;20044;-64
2022/04/18 02:36:51;;;;;;;1.10;1.00;;;;;;;2.92;72.86;95915.59;4995742;28;20109;-62
2022/04/18 02:39:16;;;;;;;0.90;0.90;;;;;;;2.93;71.52;95906.09;4995491;28;20055;-63
2022/04/18 02:41:42;;;;;;;0.90;0.90;;;;;;;2.97;72.16;95910.34;4995836;28;20026;-64
2022/04/18 02:44:07;;;;;;;0.77;0.70;;;;;;;2.89;71.05;95913.91;4995792;28;20476;-64
2022/04/18 02:46:33;;;;;;;0.60;0.60;;;;;;;2.86;70.88;95913.97;4995817;28;20389;-63
2022/04/18 02:48:58;;;;;;;0.65;0.65;;;;;;;2.78;71.30;95908.09;4995595;28;20026;-63
2022/04/18 02:51:27;;;;;;;0.60;0.60;;;;;;;2.77;71.06;95920.16;4995412;28;20030;-63
2022/04/18 02:53:54;;;;;;;0.60;0.60;;;;;;;2.85;71.19;95909.69;4995504;28;20110;-64
2022/04/18 02:56:20;;;;;;;0.73;0.70;;;;;;;2.80;71.58;95908.91;4995428;28;20026;-63
2022/04/18 02:58:47;;;;;;;0.63;0.63;;;;;;;2.89;71.02;95911.34;4995380;28;20045;-63
2022/04/18 03:01:12;;;;;;;0.70;0.70;;;;;;;2.90;71.38;95909.59;4995366;28;20376;-63
2022/04/18 03:03:38;;;;;;;0.70;0.70;;;;;;;2.93;71.38;95911.28;4995359;28;20026;-62
2022/04/18 03:06:05;;;;;;;0.65;0.60;;;;;;;2.91;72.06;95906.13;4995316;28;20380;-63
2022/04/18 03:08:31;;;;;;;0.70;0.70;;;;;;;2.84;70.36;95902.81;4995140;28;20080;-63
2022/04/18 03:11:03;;;;;;;0.60;0.60;;;;;;;2.81;70.58;95917.50;4995180;28;20018;-63
2022/04/18 03:13:30;;;;;;;0.80;0.80;;;;;;;2.84;71.19;95915.75;4995040;28;20049;-61
2022/04/18 03:15:56;;;;;;;1.33;1.20;;;;;;;2.74;71.02;95906.44;4994983;28;20026;-62
2022/04/18 03:18:21;;;;;;;1.13;0.90;;;;;;;2.73;71.11;95905.59;4994999;28;20102;-63
2022/04/18 03:20:47;;;;;;;0.77;0.77;;;;;;;2.74;71.37;95912.44;4994975;28;20556;-64
2022/04/18 03:23:12;;;;;;;0.70;0.70;;;;;;;2.75;71.45;95906.41;4994929;28;20088;-64
2022/04/18 03:25:38;;;;;;;0.80;0.80;;;;;;;2.76;71.14;95912.41;4994885;28;20033;-62
2022/04/18 03:28:04;;;;;;;0.60;0.60;;;;;;;2.81;70.80;95910.63;4994819;28;20022;-62
2022/04/18 03:30:29;;;;;;;0.57;0.57;;;;;;;2.77;70.79;95911.56;4994854;28;20065;-62
2022/04/18 03:32:55;;;;;;;0.73;0.60;;;;;;;2.74;71.50;95916.78;4994645;28;20036;-63
2022/04/18 03:35:20;;;;;;;0.80;0.68;;;;;;;2.67;71.11;95913.44;4994608;28;20026;-63
2022/04/18 03:40:30;;;;;;;1.60;0.80;;;;;;;2.74;72.75;95912.44;4994480;28;20054;-63
2022/04/18 03:42:55;;;;;;;0.50;0.50;;;;;;;2.73;71.69;95913.34;4994626;28;20432;-62
2022/04/18 03:45:21;;;;;;;0.65;0.65;;;;;;;2.72;72.18;95908.19;4994556;28;20081;-63
2022/04/18 03:47:46;;;;;;;0.70;0.70;;;;;;;2.74;72.64;95902.09;4994551;28;20026;-63
2022/04/18 03:50:12;;;;;;;0.70;0.70;;;;;;;2.72;71.67;95900.44;4994443;28;20045;-62
2022/04/18 03:52:38;;;;;;;0.70;0.70;;;;;;;2.82;71.86;95901.13;4994294;28;20118;-63
2022/04/18 03:55:04;;;;;;;0.80;0.80;;;;;;;2.84;72.65;95905.41;4994316;28;20063;-63
2022/04/18 03:57:30;;;;;;;0.73;0.73;;;;;;;2.89;71.81;95907.91;4994400;28;20030;-63
2022/04/18 03:59:55;;;;;;;1.00;0.90;;;;;;;2.90;71.11;95900.13;4994241;28;20488;-63
2022/04/18 04:02:21;;;;;;;0.60;0.60;;;;;;;2.91;71.79;95906.13;4994208;28;20026;-63
2022/04/18 04:04:46;;;;;;;0.55;0.55;;;;;;;2.96;71.81;95899.16;4994207;28;20464;-64
2022/04/18 04:07:12;;;;;;;0.45;0.45;;;;;;;2.89;71.06;95895.81;4994321;28;20023;-62
2022/04/18 04:09:38;;;;;;;0.50;0.50;;;;;;;2.88;71.17;95908.78;4994082;28;20098;-63
2022/04/18 04:12:05;;;;;;;0.52;0.52;;;;;;;2.81;70.92;95912.34;4994059;28;20084;-63
2022/04/18 04:14:31;;;;;;;0.60;0.60;;;;;;;2.84;71.09;95904.53;4993987;28;20053;-64
2022/04/18 04:16:57;;;;;;;0.52;0.52;;;;;;;2.83;71.80;95915.75;4994084;28;20041;-62
2022/04/18 04:19:23;;;;;;;1.13;0.88;;;;;;;2.86;71.39;95910.53;4994114;28;20468;-62
2022/04/18 04:21:48;;;;;;;0.75;0.73;;;;;;;2.83;71.43;95897.69;4994108;28;20030;-63
2022/04/18 04:24:14;;;;;;;0.50;0.50;;;;;;;2.86;72.06;95902.81;4993879;28;20046;-62
2022/04/18 04:26:39;;;;;;;0.70;0.60;;;;;;;2.78;72.16;95897.75;4993959;28;20120;-64
2022/04/18 04:29:05;;;;;;;2.72;0.73;;;;;;;2.88;71.89;95896.72;4993875;28;20026;-64
2022/04/18 04:31:31;;;;;;;0.55;0.55;;;;;;;2.85;71.83;95903.66;4993794;28;20050;-63
2022/04/18 04:33:57;;;;;;;0.40;0.40;;;;;;;2.83;71.78;95900.25;4976263;28;20451;-64
2022/04/18 04:36:22;;;;;;;0.55;0.55;;;;;;;2.84;71.68;95899.38;4993813;28;20110;-64
2022/04/18 04:38:48;;;;;;;0.47;0.47;;;;;;;2.88;71.74;95908.78;4993751;28;20018;-63
2022/04/18 04:41:15;;;;;;;0.68;0.68;;;;;;;2.93;71.77;95900.94;4993460;28;20057;-63
2022/04/18 04:43:41;;;;;;;2.28;1.90;;;;;;;2.93;71.17;95909.56;4993732;28;20018;-64
2022/04/18 04:46:06;;;;;;;1.30;1.20;;;;;;;3.05;71.68;95905.03;4993199;28;20026;-62
2022/04/18 04:48:32;;;;;;;0.82;0.80;;;;;;;3.06;71.96;95919.66;4993596;28;20039;-62
2022/04/18 04:50:58;;;;;;;1.30;1.20;;;;;;;3.08;72.56;95921.34;4993549;28;20034;-62
2022/04/18 04:53:23;;;;;;;1.15;1.08;;;;;;;3.13;71.06;95931.63;4993483;28;20090;-62
2022/04/18 04:55:49;;;;;;;3.65;1.95;;;;;;;3.17;70.87;95928.09;4976082;28;20030;-62
2022/04/18 04:58:15;;;;;;;2.20;1.38;;;;;;;3.22;70.00;95928.84;4993624;28;20114;-63
2022/04/18 05:00:42;;;;;;;0.55;0.55;;;;;;;3.23;68.45;95911.59;4993541;28;20385;-64
2022/04/18 05:03:08;;;;;;;0.98;0.70;;;;;;;3.25;69.84;95913.28;4993438;28;20104;-63
2022/04/18 05:05:34;;;;;;;1.70;1.60;;;;;;;3.29;70.44;95916.66;4993492;28;20029;-64
2022/04/18 05:08:00;;;;;;;0.70;0.70;;;;;;;3.39;71.04;95923.34;4993469;28;20030;-63
2022/04/18 05:10:26;;;;;;;0.90;0.90;;;;;;;3.41;69.95;95926.75;4993411;28;20026;-63
2022/04/18 05:12:52;;;;;;;0.85;0.85;;;;;;;3.41;70.38;95925.91;4993408;28;20026;-63
2022/04/18 05:15:19;;;;;;;0.82;0.80;;;;;;;3.44;70.83;95933.63;4993363;28;20037;-63
2022/04/18 05:17:44;;;;;;;4.18;0.90;;;;;;;3.57;70.44;95934.22;4993407;28;20362;-63
2022/04/18 05:20:11;;;;;;;0.88;0.70;;;;;;;3.48;69.04;95939.56;4993398;28;20102;-63
2022/04/18 05:22:36;;;;;;;3.70;0.60;;;;;;;3.58;69.70;95929.91;4993364;28;20026;-64
2022/04/18 05:25:03;;;;;;;0.70;0.70;;;;;;;3.66;70.35;95944.38;4993236;28;20041;-63
2022/04/18 05:27:29;;;;;;;7.07;1.15;;;;;;;3.74;70.29;95940.78;4993202;28;20025;-63
2022/04/18 05:29:55;;;;;;;1.27;0.70;;;;;;;3.82;68.00;95938.06;4993330;28;20019;-63
2022/04/18 05:32:20;;;;;;;9.93;0.90;;;;;;;3.90;68.59;95918.03;4993276;28;20376;-63
2022/04/18 05:34:46;;;;;;;1.58;0.65;;;;;;;3.95;67.95;95929.16;4993228;28;20026;-64
2022/04/18 05:37:12;;;;;;;0.60;0.60;;;;;;;3.97;69.68;95929.94;4993307;28;20022;-62
2022/04/18 05:39:37;;;;;;;0.70;0.70;;;;;;;3.97;67.56;95931.72;4992993;28;20043;-64
2022/04/18 05:42:03;;;;;;;2.00;1.08;;;;;;;4.04;68.81;95931.50;4993153;28;20026;-62
2022/04/18 05:44:33;;;;;;;0.77;0.77;;;;;;;4.11;68.05;95946.91;4993069;28;20473;-64
2022/04/18 05:46:59;;;;;;;3.13;0.80;;;;;;;4.14;67.22;95941.69;4993204;28;20477;-63
2022/04/18 05:49:25;;;;;;;0.70;0.70;;;;;;;4.04;66.35;95941.88;4993231;28;20027;-64
2022/04/18 05:51:50;;;;;;;6.72;0.60;;;;;;;3.98;67.18;95947.19;4992971;28;20093;-64
2022/04/18 05:54:16;;;;;;;0.50;0.50;;;;;;;3.95;68.57;95955.03;4975595;28;20508;-65
2022/04/18 05:56:41;;;;;;;6.25;0.98;;;;;;;4.06;68.03;95944.44;4992981;28;20030;-63
2022/04/18 05:59:07;;;;;;;2.85;0.70;;;;;;;4.13;69.90;95945.16;4995273;28;20109;-64
2022/04/18 06:01:33;;;;;;;0.70;0.70;;;;;;;4.06;66.88;95951.34;4996562;28;20030;-64
2022/04/18 06:03:58;;;;;;;0.65;0.65;;;;;;;4.08;69.51;95940.06;4996617;28;20400;-64
2022/04/18 06:06:25;;;;;;;0.63;0.60;;;;;;;4.10;69.64;95942.63;4996435;28;20078;-63
2022/04/18 06:08:51;;;;;;;0.70;0.70;;;;;;;4.13;69.42;95946.00;4996435;28;20155;-62
2022/04/18 06:11:16;;;;;;;0.40;0.40;;;;;;;4.15;68.33;95954.59;4996240;28;20027;-63
2022/04/18 06:13:42;;;;;;;4.40;0.65;;;;;;;4.21;68.33;95956.19;4996112;28;20026;-62
2022/04/18 06:16:08;;;;;;;0.63;0.63;;;;;;;4.26;68.48;95958.69;4996163;28;20384;-63
2022/04/18 06:18:34;;;;;;;4.93;1.15;;;;;;;4.26;68.66;95961.25;4996225;28;20028;-63
2022/04/18 06:20:59;;;;;;;0.77;0.77;;;;;;;4.36;68.63;95964.53;4996237;28;20070;-63
2022/04/18 06:23:25;;;;;;;0.85;0.75;;;;;;;4.38;67.31;95963.59;4996059;28;20033;-63
2022/04/18 06:25:51;;;;;;;0.70;0.70;;;;;;;4.42;67.36;95970.41;4995964;28;20477;-64
2022/04/18 06:28:19;;;;;;;0.60;0.60;;;;;;;4.43;67.34;95966.91;4996052;28;20022;-63
2022/04/18 06:30:44;;;;;;;0.60;0.60;;;;;;;4.45;66.93;95958.28;4995949;28;20038;-64
2022/04/18 06:33:13;;;;;;;0.80;0.80;;;;;;;4.53;67.51;95971.88;4995951;28;20031;-63
2022/04/18 06:35:41;;;;;;;0.73;0.73;;;;;;;4.60;69.89;95975.22;4995735;28;20376;-64
2022/04/18 06:38:07;;;;;;;0.38;0.38;;;;;;;4.54;65.10;95983.94;4995798;28;20495;-63
2022/04/18 06:40:33;;;;;;;0.50;0.50;;;;;;;4.54;65.68;95979.63;4995612;28;20129;-62
2022/04/18 06:42:59;;;;;;;0.40;0.40;;;;;;;4.62;64.88;95986.38;4995765;28;20532;-63
2022/04/18 06:45:25;;;;;;;0.63;0.57;;;;;;;4.57;65.00;95981.28;4995736;28;20488;-62
2022/04/18 06:47:50;;;;;;;3.03;0.60;;;;;;;4.56;64.98;95982.19;4978168;28;20030;-62
2022/04/18 06:50:16;;;;;;;0.40;0.40;;;;;;;4.46;64.31;95985.88;4995480;28;20081;-63
2022/04/18 06:52:49;;;;;;;2.25;0.50;;;;;;;4.47;63.85;95974.63;4995438;28;20026;-63
2022/04/18 06:55:16;;;;;;;0.50;0.50;;;;;;;4.46;64.16;95983.28;4995579;28;20026;-62
2022/04/18 06:57:42;;;;;;;0.30;0.30;;;;;;;4.47;63.10;95983.25;4995472;28;20503;-63
2022/04/18 07:00:09;;;;;;;0.55;0.55;;;;;;;4.52;65.06;95985.75;4995308;28;20022;-63
2022/04/18 07:02:35;;;;;;;0.30;0.30;;;;;;;4.59;64.45;95987.28;4995486;28;20029;-63
2022/04/18 07:05:00;;;;;;;0.40;0.40;;;;;;;4.63;64.28;95990.66;4995361;28;20026;-62
2022/04/18 07:07:27;;;;;;;2.25;0.50;;;;;;;4.73;65.39;95994.72;4995397;28;20034;-62
2022/04/18 07:09:52;;;;;;;0.40;0.40;;;;;;;4.82;64.10;95992.81;4994907;28;20030;-63
2022/04/18 07:12:22;;;;;;;0.40;0.40;;;;;;;4.88;64.90;96001.28;4995121;28;20469;-63
2022/04/18 07:14:49;;;;;;;0.40;0.40;;;;;;;5.00;62.48;95997.56;4995244;28;20121;-62
2022/04/18 07:17:14;;;;;;;0.40;0.40;;;;;;;5.00;64.30;96004.50;4995237;28;20025;-62
2022/04/18 07:19:40;;;;;;;0.40;0.40;;;;;;;5.11;62.93;96009.41;4995058;28;20018;-63
2022/04/18 07:22:06;;;;;;;0.40;0.40;;;;;;;5.22;61.49;96010.00;4995038;28;20031;-63
2022/04/18 07:24:32;;;;;;;0.50;0.50;;;;;;;5.27;61.11;96010.72;4994832;28;20041;-63
2022/04/18 07:27:03;;;;;;;0.38;0.38;;;;;;;5.26;62.39;96010.75;4994835;28;20435;-63
2022/04/18 07:29:29;;;;;;;0.77;0.77;;;;;;;5.28;62.78;96024.56;4994927;28;20084;-62
2022/04/18 07:31:55;;;;;;;0.40;0.40;;;;;;;5.35;61.64;96027.81;4994836;28;20030;-63
2022/04/18 07:34:20;;;;;;;0.40;0.40;;;;;;;5.24;59.78;96028.13;4994834;28;20045;-62
2022/04/18 07:36:46;;;;;;;0.50;0.50;;;;;;;5.16;60.88;96031.75;4994642;28;20039;-63
2022/04/18 07:39:12;;;;;;;0.68;0.68;;;;;;;5.07;61.73;96037.16;4994314;28;20034;-63
2022/04/18 07:41:37;;;;;;;0.47;0.47;;;;;;;4.75;60.21;96034.44;4994798;28;20030;-63
2022/04/18 07:44:03;;;;;;;0.70;0.70;;;;;;;4.69;62.44;96034.56;4994608;28;20031;-63
2022/04/18 07:46:30;;;;;;;0.50;0.50;;;;;;;4.55;60.80;96035.72;4994652;28;20026;-63
2022/04/18 07:48:56;;;;;;;0.50;0.50;;;;;;;4.39;60.96;96036.94;4994397;28;20171;-63
2022/04/18 07:51:42;;;;;;;0.60;0.60;;;;;;;4.25;62.29;96035.50;4994516;28;20082;-63
2022/04/18 07:54:09;;;;;;;0.73;0.68;;;;;;;4.28;61.25;96035.44;4994447;28;20038;-62
2022/04/18 07:56:35;;;;;;;0.60;0.60;;;;;;;4.37;62.61;96044.75;4994391;28;20077;-62
2022/04/18 07:59:02;;;;;;;0.57;0.57;;;;;;;4.38;60.64;96038.69;4994247;28;20023;-62
2022/04/18 08:01:27;;;;;;;0.70;0.70;;;;;;;4.24;61.62;96046.75;4994330;28;20026;-61
2022/04/18 08:03:54;;;;;;;0.70;0.50;;;;;;;4.34;62.82;96052.59;4994301;28;20034;-61
2022/04/18 08:06:20;;;;;;;0.70;0.70;;;;;;;4.44;62.24;96053.25;4994237;28;20092;-63
2022/04/18 08:08:46;;;;;;;0.93;0.88;;;;;;;4.37;62.14;96057.69;4994169;28;20029;-62
2022/04/18 08:11:12;;;;;;;0.50;0.50;;;;;;;4.34;62.56;96056.91;4994116;28;20030;-62
2022/04/18 08:13:45;;;;;;;0.73;0.73;;;;;;;4.30;64.80;96059.56;4994055;28;20034;-63
2022/04/18 08:16:11;;;;;;;0.70;0.70;;;;;;;4.42;62.13;96052.41;4994092;28;20429;-63
2022/04/18 08:18:44;;;;;;;1.27;0.90;;;;;;;4.43;61.74;96064.50;4993942;28;20369;-62
2022/04/18 08:21:09;;;;;;;1.10;0.95;;;;;;;4.30;61.94;96062.16;4993493;28;20483;-62
2022/04/18 08:23:35;;;;;;;2.25;0.80;;;;;;;4.17;62.34;96060.72;4993867;28;20106;-62
2022/04/18 08:26:04;;;;;;;0.70;0.70;;;;;;;4.12;61.17;96068.56;4993756;28;20081;-62
2022/04/18 08:28:30;;;;;;;0.70;0.70;;;;;;;4.09;62.25;96068.63;4993852;28;20030;-62
2022/04/18 08:30:57;;;;;;;1.20;0.75;;;;;;;4.05;62.52;96069.56;4993773;28;20484;-63
2022/04/18 08:33:23;;;;;;;0.85;0.85;;;;;;;4.02;62.19;96070.50;4993680;28;20134;-62
2022/04/18 08:35:49;;;;;;;1.10;1.00;;;;;;;4.05;62.52;96066.97;4976264;28;20022;-62
2022/04/18 08:38:15;;;;;;;0.90;0.90;;;;;;;3.97;63.42;96074.06;4993801;28;20022;-62
2022/04/18 08:40:45;;;;;;;0.80;0.80;;;;;;;3.99;62.07;96082.63;4993459;28;20507;-63
2022/04/18 08:43:11;;;;;;;1.08;1.00;;;;;;;3.85;63.31;96075.97;4993736;28;20023;-63
2022/04/18 08:45:37;;;;;;;1.33;1.15;;;;;;;3.89;65.94;96084.53;4993639;28;20029;-63
2022/04/18 08:53:35;;;;;;;2.03;1.30;;;;;;;4.10;67.18;96087.59;4993773;28;20397;-63
2022/04/18 08:56:01;;;;;;;1.80;1.55;;;;;;;4.27;67.84;96092.44;4993591;28;20023;-62
2022/04/18 08:58:27;;;;;;;1.58;1.48;;;;;;;4.35;67.63;96087.97;4993538;28;20519;-62
2022/04/18 09:00:59;;;;;;;1.38;1.27;;;;;;;4.45;67.37;96086.03;4993490;28;20034;-63
2022/04/18 09:03:25;;;;;;;1.55;1.15;;;;;;;4.46;67.25;96092.94;4993607;28;20030;-61
2022/04/18 09:06:06;;;;;;;1.45;1.33;;;;;;;4.57;69.28;96092.69;4993496;28;20080;-61
2022/04/18 09:08:42;;;;;;;4.28;2.90;;;;;;;4.73;67.76;96098.38;4993589;28;20081;-62
2022/04/18 09:11:08;;;;;;;2.03;1.77;;;;;;;4.79;67.28;96097.44;4993483;28;20436;-62
2022/04/18 09:13:42;;;;;;;1.33;1.20;;;;;;;4.72;67.56;96101.88;4993360;28;20018;-63
2022/04/18 09:16:15;;;;;;;2.47;1.02;;;;;;;4.67;66.42;96096.78;4993475;28;20031;-63
2022/04/18 09:18:42;;;;;;;1.08;1.00;;;;;;;4.43;67.27;96101.59;4993459;28;20092;-63
2022/04/18 09:21:08;;;;;;;0.90;0.90;;;;;;;4.37;67.97;96093.94;4993400;28;20026;-63
2022/04/18 09:23:35;;;;;;;2.95;1.00;;;;;;;4.33;69.22;96091.47;4993301;28;20030;-63
2022/04/18 09:26:04;;;;;;;1.40;1.30;;;;;;;4.38;70.91;96094.81;4993251;28;20025;-62
2022/04/18 09:28:32;;;;;;;1.05;1.05;;;;;;;4.47;70.51;96096.34;4975955;28;20500;-63
2022/04/18 09:31:06;;;;;;;1.45;1.35;;;;;;;4.52;70.90;96097.13;4993265;28;20038;-62
2022/04/18 09:33:54;;;;;;;1.00;1.00;;;;;;;4.58;71.94;96102.19;4996247;28;20031;-62
2022/04/18 09:36:21;;;;;;;1.00;1.00;;;;;;;4.60;68.71;96099.56;4997072;28;20034;-63
2022/04/18 09:38:52;;;;;;;0.85;0.82;;;;;;;4.53;68.80;96096.22;4996996;28;20023;-63
2022/04/18 09:41:22;;;;;;;2.30;1.83;;;;;;;4.52;70.55;96097.13;4996812;28;20501;-63
2022/04/18 09:43:50;;;;;;;5.53;3.42;;;;;;;4.52;70.89;96103.13;4996903;28;20473;-63
2022/04/18 09:46:16;;;;;;;2.75;2.13;;;;;;;4.50;68.02;96104.94;4996749;28;20034;-62
2022/04/18 09:48:46;;;;;;;7.82;5.30;;;;;;;4.57;70.48;96100.47;4996662;28;20030;-63
2022/04/18 09:51:26;;;;;;;10.50;6.38;;;;;;;4.64;71.22;96099.44;4979313;28;20080;-63
2022/04/18 09:53:57;;;;;;;4.50;3.80;;;;;;;4.64;69.09;96096.84;4996612;28;20026;-62
2022/04/18 09:56:26;;;;;;;9.63;7.90;;;;;;;4.65;70.04;96097.72;4996741;28;20024;-62
2022/04/18 09:58:53;;;;;;;3.83;3.47;;;;;;;4.66;70.08;96096.81;4996718;28;20122;-62
2022/04/18 10:01:19;;;;;;;8.55;6.07;;;;;;;4.77;69.94;96096.59;4996512;28;20045;-62
2022/04/18 10:03:46;;;;;;;5.15;4.10;;;;;;;4.79;69.57;96092.25;4996463;28;20026;-63
2022/04/18 10:06:12;;;;;;;2.50;2.30;;;;;;;4.97;71.79;96085.75;4996380;28;20030;-62
2022/04/18 10:08:39;;;;;;;1.33;1.20;;;;;;;5.10;69.13;96082.91;4996420;28;20030;-63
2022/04/18 10:11:11;;;;;;;1.20;1.10;;;;;;;5.32;69.74;96088.41;4996347;28;20118;-63
2022/04/18 10:13:37;;;;;;;1.52;1.30;;;;;;;5.40;67.42;96086.50;4996226;28;20109;-62
2022/04/18 10:16:05;;;;;;;1.50;1.30;;;;;;;5.45;64.73;96083.81;4996259;28;20022;-61
2022/04/18 10:18:35;;;;;;;2.28;2.08;;;;;;;5.43;68.29;96089.03;4996243;28;20098;-63
2022/04/18 10:21:07;;;;;;;1.58;1.48;;;;;;;5.54;64.98;96086.16;4996211;28;20042;-62
2022/04/18 10:23:54;;;;;;;1.50;1.40;;;;;;;5.76;64.97;96083.03;4996133;28;20049;-62
2022/04/18 10:27:12;;;;;;;2.85;1.40;;;;;;;5.85;65.26;96081.91;4996064;28;20026;-63
2022/04/18 10:29:59;;;;;;;2.85;1.75;;;;;;;5.86;65.19;96080.16;4917133;29;20123;-62
2022/04/18 10:32:27;;;;;;;1.30;1.20;;;;;;;5.83;62.01;96083.69;4995904;28;20026;-63
2022/04/18 10:34:58;;;;;;;1.58;1.20;;;;;;;5.64;62.12;96084.19;4995966;28;20042;-63
2022/04/18 10:37:24;;;;;;;1.52;1.42;;;;;;;5.41;61.85;96090.78;4996090;28;20026;-62
2022/04/18 10:39:59;;;;;;;1.20;1.10;;;;;;;5.22;61.67;96092.13;4995499;28;20101;-62
2022/04/18 10:42:30;;;;;;;1.10;1.10;;;;;;;5.10;63.01;96085.50;4995695;28;20029;-64
2022/04/18 10:45:08;;;;;;;1.30;1.20;;;;;;;5.14;63.99;96079.34;4995183;28;20121;-63
2022/04/18 10:47:56;;;;;;;1.60;1.50;;;;;;;5.14;63.87;96087.13;4995666;28;20491;-64
2022/04/18 10:50:50;;;;;;;1.50;1.40;;;;;;;5.22;65.21;96080.03;4995638;28;20022;-64
2022/04/18 10:53:17;;;;;;;1.30;1.20;;;;;;;5.28;63.98;96095.44;4995463;28;20030;-63
2022/04/18 10:56:09;;;;;;;2.10;1.73;;;;;;;5.25;64.69;96086.88;4995688;28;20026;-63
2022/04/18 10:58:35;;;;;;;1.70;1.23;;;;;;;5.31;62.02;96091.91;4992210;28;20169;-64
2022/04/18 11:01:03;;;;;;;2.22;1.75;;;;;;;5.51;63.93;96086.22;4995376;28;20489;-64
2022/04/18 11:03:35;;;;;;;4.80;3.00;;;;;;;5.62;64.22;96077.31;4995374;28;20029;-62
2022/04/18 11:06:02;;;;;;;2.60;2.40;;;;;;;5.71;63.12;96081.41;4995499;28;20485;-62
2022/04/18 11:08:29;;;;;;;1.10;1.10;;;;;;;5.53;59.79;96081.00;4995360;28;20113;-63
2022/04/18 11:11:25;;;;;;;1.65;1.15;;;;;;;5.37;61.68;96081.41;4995269;28;20062;-64
2022/04/18 11:13:51;;;;;;;0.80;0.80;;;;;;;5.12;61.62;96079.38;4994722;28;20048;-62
2022/04/18 11:16:22;;;;;;;1.48;1.00;;;;;;;5.08;63.21;96082.09;4995060;28;20018;-64
2022/04/18 11:19:15;;;;;;;1.35;1.25;;;;;;;4.69;64.85;96086.38;4995187;28;20027;-63
2022/04/18 11:22:04;;;;;;;1.20;1.10;;;;;;;4.55;66.92;96087.53;4995078;28;20492;-63
2022/04/18 11:24:56;;;;;;;4.65;1.90;;;;;;;4.58;68.08;96089.22;4995044;28;20030;-64
2022/04/18 11:27:28;;;;;;;1.55;1.45;;;;;;;4.52;68.04;96085.00;4991639;28;20124;-63
2022/04/18 11:30:03;;;;;;;1.08;1.00;;;;;;;4.34;67.92;96080.22;4994947;28;20105;-64
2022/04/18 11:32:42;;;;;;;1.52;1.38;;;;;;;4.45;68.55;96085.19;4994772;28;20034;-63
2022/04/18 11:35:10;;;;;;;1.23;1.13;;;;;;;4.50;68.86;96081.63;4994776;28;20026;-64
2022/04/18 11:37:43;;;;;;;1.13;1.00;;;;;;;4.66;67.93;96083.88;4994621;28;20077;-64
2022/04/18 11:40:17;;;;;;;1.10;1.10;;;;;;;4.66;68.63;96079.53;4994450;28;20133;-64
2022/04/18 11:42:45;;;;;;;0.90;0.90;;;;;;;4.78;68.13;96085.34;4994682;28;20072;-64
2022/04/18 11:45:21;;;;;;;1.30;1.17;;;;;;;4.85;67.81;96081.72;4994684;28;20030;-64
2022/04/18 11:47:48;;;;;;;1.65;1.35;;;;;;;4.84;67.67;96077.44;4994608;28;20077;-63
2022/04/18 11:50:21;;;;;;;1.40;1.30;;;;;;;4.86;66.90;96080.84;4994541;28;20037;-63
2022/04/18 11:52:48;;;;;;;1.30;1.20;;;;;;;4.93;65.66;96077.22;4994379;28;20484;-63
2022/04/18 11:55:17;;;;;;;1.17;1.08;;;;;;;4.98;63.75;96069.34;4993904;28;20030;-63
2022/04/18 11:57:47;;;;;;;0.88;0.82;;;;;;;4.88;63.66;96060.06;4993963;28;20551;-64
2022/04/18 12:08:39;;;;;;;1.35;1.25;;;;;;;4.79;61.26;96059.38;4994568;28;20436;-63
2022/04/18 12:11:05;;;;;;;1.13;1.02;;;;;;;4.78;60.93;96062.00;4994257;28;20362;-63